sensor_id;sensor_type;location;lat;lon;timestamp;P1;durP1;ratioP1;P2;durP2;ratioP2
65936;SDS011;52707;52.086;5.418;2022-10-31T00:00:04;3.45;;;2.22;;
65936;SDS011;52707;52.086;5.418;2022-10-31T00:02:33;3.72;;;2.25;;
65936;SDS011;52707;52.086;5.418;2022-10-31T00:04:59;2.33;;;1.80;;
65936;SDS011;52707;52.086;5.418;2022-10-31T00:07:25;2.28;;;1.80;;
65936;SDS011;52707;52.086;5.418;2022-10-31T00:09:52;3.40;;;2.35;;
65936;SDS011;52707;52.086;5.418;2022-10-31T00:12:18;2.65;;;1.92;;
65936;SDS011;52707;52.086;5.418;2022-10-31T00:14:44;3.25;;;2.20;;
65936;SDS011;52707;52.086;5.418;2022-10-31T00:17:11;3.10;;;2.25;;
65936;SDS011;52707;52.086;5.418;2022-10-31T00:19:37;1.70;;;1.60;;
65936;SDS011;52707;52.086;5.418;2022-10-31T00:22:03;2.58;;;1.98;;
65936;SDS011;52707;52.086;5.418;2022-10-31T00:24:29;2.85;;;1.92;;
65936;SDS011;52707;52.086;5.418;2022-10-31T00:26:56;3.45;;;2.35;;
65936;SDS011;52707;52.086;5.418;2022-10-31T00:29:22;4.80;;;2.20;;
65936;SDS011;52707;52.086;5.418;2022-10-31T00:31:48;3.15;;;2.00;;
65936;SDS011;52707;52.086;5.418;2022-10-31T00:34:14;3.20;;;1.60;;
65936;SDS011;52707;52.086;5.418;2022-10-31T00:36:41;2.20;;;1.90;;
65936;SDS011;52707;52.086;5.418;2022-10-31T00:39:07;3.40;;;1.90;;
65936;SDS011;52707;52.086;5.418;2022-10-31T00:41:33;3.10;;;2.00;;
65936;SDS011;52707;52.086;5.418;2022-10-31T00:43:59;2.67;;;1.80;;
65936;SDS011;52707;52.086;5.418;2022-10-31T00:46:26;3.47;;;2.10;;
65936;SDS011;52707;52.086;5.418;2022-10-31T00:48:52;2.45;;;2.05;;
65936;SDS011;52707;52.086;5.418;2022-10-31T00:51:18;2.08;;;1.75;;
65936;SDS011;52707;52.086;5.418;2022-10-31T00:53:44;2.67;;;1.92;;
65936;SDS011;52707;52.086;5.418;2022-10-31T00:56:11;3.63;;;1.83;;
65936;SDS011;52707;52.086;5.418;2022-10-31T00:58:37;2.60;;;1.70;;
65936;SDS011;52707;52.086;5.418;2022-10-31T01:01:03;3.20;;;1.70;;
65936;SDS011;52707;52.086;5.418;2022-10-31T01:03:31;3.70;;;2.30;;
65936;SDS011;52707;52.086;5.418;2022-10-31T01:06:02;2.17;;;1.67;;
65936;SDS011;52707;52.086;5.418;2022-10-31T01:08:29;2.78;;;1.90;;
65936;SDS011;52707;52.086;5.418;2022-10-31T01:11:03;1.85;;;1.73;;
65936;SDS011;52707;52.086;5.418;2022-10-31T01:13:30;1.77;;;1.40;;
65936;SDS011;52707;52.086;5.418;2022-10-31T01:15:56;3.35;;;2.10;;
65936;SDS011;52707;52.086;5.418;2022-10-31T01:18:23;2.92;;;1.90;;
65936;SDS011;52707;52.086;5.418;2022-10-31T01:21:00;2.35;;;1.83;;
65936;SDS011;52707;52.086;5.418;2022-10-31T01:23:26;2.05;;;1.60;;
65936;SDS011;52707;52.086;5.418;2022-10-31T01:26:03;2.30;;;1.65;;
65936;SDS011;52707;52.086;5.418;2022-10-31T01:28:30;2.00;;;1.65;;
65936;SDS011;52707;52.086;5.418;2022-10-31T01:30:59;1.65;;;1.55;;
65936;SDS011;52707;52.086;5.418;2022-10-31T01:33:26;3.08;;;1.73;;
65936;SDS011;52707;52.086;5.418;2022-10-31T01:35:52;2.05;;;1.80;;
65936;SDS011;52707;52.086;5.418;2022-10-31T01:38:18;2.35;;;1.67;;
65936;SDS011;52707;52.086;5.418;2022-10-31T01:40:44;3.28;;;1.70;;
65936;SDS011;52707;52.086;5.418;2022-10-31T01:43:14;1.73;;;1.63;;
65936;SDS011;52707;52.086;5.418;2022-10-31T01:45:41;2.07;;;1.80;;
65936;SDS011;52707;52.086;5.418;2022-10-31T01:48:11;1.95;;;1.70;;
65936;SDS011;52707;52.086;5.418;2022-10-31T01:50:39;2.40;;;1.63;;
65936;SDS011;52707;52.086;5.418;2022-10-31T01:53:06;2.08;;;1.88;;
65936;SDS011;52707;52.086;5.418;2022-10-31T01:55:34;2.72;;;1.90;;
65936;SDS011;52707;52.086;5.418;2022-10-31T01:58:02;3.13;;;1.80;;
65936;SDS011;52707;52.086;5.418;2022-10-31T02:00:30;3.17;;;1.92;;
65936;SDS011;52707;52.086;5.418;2022-10-31T02:02:56;2.55;;;1.60;;
65936;SDS011;52707;52.086;5.418;2022-10-31T02:05:24;1.50;;;1.40;;
65936;SDS011;52707;52.086;5.418;2022-10-31T02:07:53;2.55;;;1.90;;
65936;SDS011;52707;52.086;5.418;2022-10-31T02:10:21;2.73;;;1.70;;
65936;SDS011;52707;52.086;5.418;2022-10-31T02:12:48;1.80;;;1.50;;
65936;SDS011;52707;52.086;5.418;2022-10-31T02:15:15;1.60;;;1.50;;
65936;SDS011;52707;52.086;5.418;2022-10-31T02:17:41;2.25;;;1.40;;
65936;SDS011;52707;52.086;5.418;2022-10-31T02:20:20;1.60;;;1.50;;
65936;SDS011;52707;52.086;5.418;2022-10-31T02:25:38;1.63;;;1.42;;
65936;SDS011;52707;52.086;5.418;2022-10-31T02:28:31;1.83;;;1.42;;
65936;SDS011;52707;52.086;5.418;2022-10-31T02:32:02;1.92;;;1.48;;
65936;SDS011;52707;52.086;5.418;2022-10-31T02:36:31;1.95;;;1.67;;
65936;SDS011;52707;52.086;5.418;2022-10-31T02:41:29;2.25;;;1.42;;
65936;SDS011;52707;52.086;5.418;2022-10-31T02:44:05;2.42;;;1.42;;
65936;SDS011;52707;52.086;5.418;2022-10-31T02:46:50;2.20;;;1.60;;
65936;SDS011;52707;52.086;5.418;2022-10-31T02:49:21;2.65;;;1.60;;
65936;SDS011;52707;52.086;5.418;2022-10-31T02:51:49;2.65;;;1.67;;
65936;SDS011;52707;52.086;5.418;2022-10-31T02:54:17;2.83;;;1.63;;
65936;SDS011;52707;52.086;5.418;2022-10-31T02:56:43;1.70;;;1.60;;
65936;SDS011;52707;52.086;5.418;2022-10-31T02:59:09;3.00;;;1.52;;
65936;SDS011;52707;52.086;5.418;2022-10-31T03:04:10;1.83;;;1.40;;
65936;SDS011;52707;52.086;5.418;2022-10-31T03:06:41;1.65;;;1.40;;
65936;SDS011;52707;52.086;5.418;2022-10-31T03:12:00;2.08;;;1.50;;
65936;SDS011;52707;52.086;5.418;2022-10-31T03:14:41;2.35;;;1.58;;
65936;SDS011;52707;52.086;5.418;2022-10-31T03:17:08;1.50;;;1.33;;
65936;SDS011;52707;52.086;5.418;2022-10-31T03:19:39;1.65;;;1.33;;
65936;SDS011;52707;52.086;5.418;2022-10-31T03:22:15;2.58;;;1.52;;
65936;SDS011;52707;52.086;5.418;2022-10-31T03:24:42;2.90;;;1.48;;
65936;SDS011;52707;52.086;5.418;2022-10-31T03:27:10;1.98;;;1.75;;
65936;SDS011;52707;52.086;5.418;2022-10-31T03:29:37;1.60;;;1.50;;
65936;SDS011;52707;52.086;5.418;2022-10-31T03:32:07;2.20;;;1.23;;
65936;SDS011;52707;52.086;5.418;2022-10-31T03:34:34;1.77;;;1.45;;
65936;SDS011;52707;52.086;5.418;2022-10-31T03:37:02;1.60;;;1.50;;
65936;SDS011;52707;52.086;5.418;2022-10-31T03:39:29;1.30;;;1.20;;
65936;SDS011;52707;52.086;5.418;2022-10-31T03:41:58;1.70;;;1.25;;
65936;SDS011;52707;52.086;5.418;2022-10-31T03:44:26;1.42;;;1.33;;
65936;SDS011;52707;52.086;5.418;2022-10-31T03:46:54;3.03;;;1.50;;
65936;SDS011;52707;52.086;5.418;2022-10-31T03:49:20;1.45;;;1.35;;
65936;SDS011;52707;52.086;5.418;2022-10-31T03:54:20;1.35;;;1.20;;
65936;SDS011;52707;52.086;5.418;2022-10-31T03:57:03;1.40;;;1.30;;
65936;SDS011;52707;52.086;5.418;2022-10-31T03:59:41;1.80;;;1.13;;
65936;SDS011;52707;52.086;5.418;2022-10-31T04:02:10;1.60;;;1.30;;
65936;SDS011;52707;52.086;5.418;2022-10-31T04:04:37;4.40;;;1.60;;
65936;SDS011;52707;52.086;5.418;2022-10-31T04:07:04;3.03;;;1.60;;
65936;SDS011;52707;52.086;5.418;2022-10-31T04:09:32;1.35;;;1.17;;
65936;SDS011;52707;52.086;5.418;2022-10-31T04:11:59;1.27;;;1.10;;
65936;SDS011;52707;52.086;5.418;2022-10-31T04:14:26;1.27;;;1.13;;
65936;SDS011;52707;52.086;5.418;2022-10-31T04:16:53;1.63;;;1.40;;
65936;SDS011;52707;52.086;5.418;2022-10-31T04:19:20;1.25;;;1.00;;
65936;SDS011;52707;52.086;5.418;2022-10-31T04:21:46;1.38;;;0.93;;
65936;SDS011;52707;52.086;5.418;2022-10-31T04:24:13;1.25;;;1.15;;
65936;SDS011;52707;52.086;5.418;2022-10-31T04:26:39;1.40;;;1.30;;
65936;SDS011;52707;52.086;5.418;2022-10-31T04:29:05;3.22;;;1.27;;
65936;SDS011;52707;52.086;5.418;2022-10-31T04:31:32;1.25;;;1.15;;
65936;SDS011;52707;52.086;5.418;2022-10-31T04:33:58;1.60;;;1.13;;
65936;SDS011;52707;52.086;5.418;2022-10-31T04:36:24;1.52;;;1.05;;
65936;SDS011;52707;52.086;5.418;2022-10-31T04:38:51;2.03;;;1.30;;
65936;SDS011;52707;52.086;5.418;2022-10-31T04:41:17;1.30;;;1.10;;
65936;SDS011;52707;52.086;5.418;2022-10-31T04:43:43;2.60;;;1.20;;
65936;SDS011;52707;52.086;5.418;2022-10-31T04:46:09;1.02;;;1.00;;
65936;SDS011;52707;52.086;5.418;2022-10-31T04:48:36;1.20;;;1.10;;
65936;SDS011;52707;52.086;5.418;2022-10-31T04:51:02;1.40;;;1.10;;
65936;SDS011;52707;52.086;5.418;2022-10-31T04:53:29;1.23;;;1.10;;
65936;SDS011;52707;52.086;5.418;2022-10-31T04:55:57;1.40;;;1.10;;
65936;SDS011;52707;52.086;5.418;2022-10-31T04:58:23;1.17;;;1.08;;
65936;SDS011;52707;52.086;5.418;2022-10-31T05:00:53;1.20;;;0.98;;
65936;SDS011;52707;52.086;5.418;2022-10-31T05:03:20;1.13;;;1.02;;
65936;SDS011;52707;52.086;5.418;2022-10-31T05:05:46;1.58;;;1.20;;
65936;SDS011;52707;52.086;5.418;2022-10-31T05:08:13;1.52;;;1.15;;
65936;SDS011;52707;52.086;5.418;2022-10-31T05:10:39;1.15;;;1.10;;
65936;SDS011;52707;52.086;5.418;2022-10-31T05:13:05;1.20;;;1.10;;
65936;SDS011;52707;52.086;5.418;2022-10-31T05:15:32;1.67;;;1.20;;
65936;SDS011;52707;52.086;5.418;2022-10-31T05:17:59;0.93;;;0.93;;
65936;SDS011;52707;52.086;5.418;2022-10-31T05:20:26;0.93;;;0.93;;
65936;SDS011;52707;52.086;5.418;2022-10-31T05:22:54;1.13;;;1.02;;
65936;SDS011;52707;52.086;5.418;2022-10-31T05:25:21;1.52;;;1.10;;
65936;SDS011;52707;52.086;5.418;2022-10-31T05:27:48;1.27;;;1.17;;
65936;SDS011;52707;52.086;5.418;2022-10-31T05:30:16;1.40;;;1.30;;
65936;SDS011;52707;52.086;5.418;2022-10-31T05:32:44;1.35;;;1.20;;
65936;SDS011;52707;52.086;5.418;2022-10-31T05:35:11;0.80;;;0.80;;
65936;SDS011;52707;52.086;5.418;2022-10-31T05:37:38;1.55;;;1.25;;
65936;SDS011;52707;52.086;5.418;2022-10-31T05:40:05;2.47;;;1.00;;
65936;SDS011;52707;52.086;5.418;2022-10-31T05:42:33;1.17;;;1.00;;
65936;SDS011;52707;52.086;5.418;2022-10-31T05:45:00;0.90;;;0.90;;
65936;SDS011;52707;52.086;5.418;2022-10-31T05:47:26;0.95;;;0.82;;
65936;SDS011;52707;52.086;5.418;2022-10-31T05:49:53;0.95;;;0.95;;
65936;SDS011;52707;52.086;5.418;2022-10-31T05:52:19;1.25;;;1.13;;
65936;SDS011;52707;52.086;5.418;2022-10-31T05:54:45;1.52;;;1.10;;
65936;SDS011;52707;52.086;5.418;2022-10-31T05:57:12;1.10;;;1.00;;
65936;SDS011;52707;52.086;5.418;2022-10-31T05:59:38;1.23;;;1.10;;
65936;SDS011;52707;52.086;5.418;2022-10-31T06:02:04;2.50;;;1.17;;
65936;SDS011;52707;52.086;5.418;2022-10-31T06:04:31;2.35;;;1.30;;
65936;SDS011;52707;52.086;5.418;2022-10-31T06:06:57;0.95;;;0.95;;
65936;SDS011;52707;52.086;5.418;2022-10-31T06:09:24;1.17;;;1.08;;
65936;SDS011;52707;52.086;5.418;2022-10-31T06:11:50;3.20;;;1.27;;
65936;SDS011;52707;52.086;5.418;2022-10-31T06:14:16;1.58;;;1.40;;
65936;SDS011;52707;52.086;5.418;2022-10-31T06:16:42;1.27;;;1.13;;
65936;SDS011;52707;52.086;5.418;2022-10-31T06:19:09;2.25;;;1.20;;
65936;SDS011;52707;52.086;5.418;2022-10-31T06:21:35;1.70;;;1.20;;
65936;SDS011;52707;52.086;5.418;2022-10-31T06:24:01;1.45;;;1.00;;
65936;SDS011;52707;52.086;5.418;2022-10-31T06:26:28;3.80;;;1.63;;
65936;SDS011;52707;52.086;5.418;2022-10-31T06:28:54;1.30;;;1.20;;
65936;SDS011;52707;52.086;5.418;2022-10-31T06:31:28;1.30;;;0.95;;
65936;SDS011;52707;52.086;5.418;2022-10-31T06:33:54;2.35;;;1.50;;
65936;SDS011;52707;52.086;5.418;2022-10-31T06:36:20;1.95;;;1.40;;
65936;SDS011;52707;52.086;5.418;2022-10-31T06:38:46;4.10;;;1.40;;
65936;SDS011;52707;52.086;5.418;2022-10-31T06:41:13;4.22;;;1.73;;
65936;SDS011;52707;52.086;5.418;2022-10-31T06:43:39;2.50;;;1.60;;
65936;SDS011;52707;52.086;5.418;2022-10-31T06:46:05;1.40;;;1.27;;
65936;SDS011;52707;52.086;5.418;2022-10-31T06:48:32;3.20;;;1.20;;
65936;SDS011;52707;52.086;5.418;2022-10-31T06:50:59;1.50;;;1.40;;
65936;SDS011;52707;52.086;5.418;2022-10-31T06:53:26;3.28;;;1.80;;
65936;SDS011;52707;52.086;5.418;2022-10-31T06:55:52;2.67;;;1.50;;
65936;SDS011;52707;52.086;5.418;2022-10-31T06:58:18;1.65;;;1.40;;
65936;SDS011;52707;52.086;5.418;2022-10-31T07:00:45;1.88;;;1.33;;
65936;SDS011;52707;52.086;5.418;2022-10-31T07:03:12;1.60;;;1.50;;
65936;SDS011;52707;52.086;5.418;2022-10-31T07:05:38;2.53;;;1.73;;
65936;SDS011;52707;52.086;5.418;2022-10-31T07:08:05;1.65;;;1.30;;
65936;SDS011;52707;52.086;5.418;2022-10-31T07:10:33;1.90;;;1.80;;
65936;SDS011;52707;52.086;5.418;2022-10-31T07:13:06;1.52;;;1.42;;
65936;SDS011;52707;52.086;5.418;2022-10-31T07:15:35;1.90;;;1.52;;
65936;SDS011;52707;52.086;5.418;2022-10-31T07:18:02;1.63;;;1.52;;
65936;SDS011;52707;52.086;5.418;2022-10-31T07:20:29;1.98;;;1.60;;
65936;SDS011;52707;52.086;5.418;2022-10-31T07:22:55;1.95;;;1.60;;
65936;SDS011;52707;52.086;5.418;2022-10-31T07:25:22;2.38;;;1.50;;
65936;SDS011;52707;52.086;5.418;2022-10-31T07:27:48;4.38;;;1.95;;
65936;SDS011;52707;52.086;5.418;2022-10-31T07:30:15;3.75;;;1.88;;
65936;SDS011;52707;52.086;5.418;2022-10-31T07:32:44;3.08;;;1.70;;
65936;SDS011;52707;52.086;5.418;2022-10-31T07:35:11;1.67;;;1.58;;
65936;SDS011;52707;52.086;5.418;2022-10-31T07:37:38;2.20;;;1.63;;
65936;SDS011;52707;52.086;5.418;2022-10-31T07:40:04;2.85;;;1.48;;
65936;SDS011;52707;52.086;5.418;2022-10-31T07:42:37;1.77;;;1.63;;
65936;SDS011;52707;52.086;5.418;2022-10-31T07:45:04;1.48;;;1.38;;
65936;SDS011;52707;52.086;5.418;2022-10-31T07:47:49;2.35;;;1.40;;
65936;SDS011;52707;52.086;5.418;2022-10-31T07:50:17;2.42;;;1.80;;
65936;SDS011;52707;52.086;5.418;2022-10-31T07:52:43;1.70;;;1.58;;
65936;SDS011;52707;52.086;5.418;2022-10-31T07:55:10;1.83;;;1.50;;
65936;SDS011;52707;52.086;5.418;2022-10-31T07:57:36;1.50;;;1.40;;
65936;SDS011;52707;52.086;5.418;2022-10-31T08:00:03;1.80;;;1.70;;
65936;SDS011;52707;52.086;5.418;2022-10-31T08:02:30;2.60;;;1.70;;
65936;SDS011;52707;52.086;5.418;2022-10-31T08:04:56;1.75;;;1.55;;
65936;SDS011;52707;52.086;5.418;2022-10-31T08:07:26;2.22;;;1.63;;
65936;SDS011;52707;52.086;5.418;2022-10-31T08:09:53;1.45;;;1.25;;
65936;SDS011;52707;52.086;5.418;2022-10-31T08:12:19;1.73;;;1.63;;
65936;SDS011;52707;52.086;5.418;2022-10-31T08:14:46;1.73;;;1.63;;
65936;SDS011;52707;52.086;5.418;2022-10-31T08:17:12;2.63;;;1.73;;
65936;SDS011;52707;52.086;5.418;2022-10-31T08:19:39;3.63;;;1.60;;
65936;SDS011;52707;52.086;5.418;2022-10-31T08:22:05;1.80;;;1.70;;
65936;SDS011;52707;52.086;5.418;2022-10-31T08:24:31;2.03;;;1.60;;
65936;SDS011;52707;52.086;5.418;2022-10-31T08:26:58;2.13;;;1.95;;
65936;SDS011;52707;52.086;5.418;2022-10-31T08:29:24;1.85;;;1.73;;
65936;SDS011;52707;52.086;5.418;2022-10-31T08:31:50;2.08;;;1.70;;
65936;SDS011;52707;52.086;5.418;2022-10-31T08:34:16;1.95;;;1.38;;
65936;SDS011;52707;52.086;5.418;2022-10-31T08:36:43;2.05;;;1.85;;
65936;SDS011;52707;52.086;5.418;2022-10-31T08:39:11;1.88;;;1.67;;
65936;SDS011;52707;52.086;5.418;2022-10-31T08:41:38;1.85;;;1.52;;
65936;SDS011;52707;52.086;5.418;2022-10-31T08:44:04;2.00;;;1.58;;
65936;SDS011;52707;52.086;5.418;2022-10-31T08:46:30;1.73;;;1.63;;
65936;SDS011;52707;52.086;5.418;2022-10-31T08:48:57;1.70;;;1.17;;
65936;SDS011;52707;52.086;5.418;2022-10-31T08:51:24;1.77;;;1.50;;
65936;SDS011;52707;52.086;5.418;2022-10-31T08:53:50;1.95;;;1.77;;
65936;SDS011;52707;52.086;5.418;2022-10-31T08:56:16;1.83;;;1.73;;
65936;SDS011;52707;52.086;5.418;2022-10-31T08:58:43;1.83;;;1.52;;
65936;SDS011;52707;52.086;5.418;2022-10-31T09:01:09;1.95;;;1.70;;
65936;SDS011;52707;52.086;5.418;2022-10-31T09:03:35;1.55;;;1.45;;
65936;SDS011;52707;52.086;5.418;2022-10-31T09:06:02;1.52;;;1.42;;
65936;SDS011;52707;52.086;5.418;2022-10-31T09:08:29;2.05;;;1.40;;
65936;SDS011;52707;52.086;5.418;2022-10-31T09:10:56;2.55;;;1.58;;
65936;SDS011;52707;52.086;5.418;2022-10-31T09:13:23;1.50;;;1.40;;
65936;SDS011;52707;52.086;5.418;2022-10-31T09:18:20;2.33;;;1.60;;
65936;SDS011;52707;52.086;5.418;2022-10-31T09:20:47;1.50;;;1.40;;
65936;SDS011;52707;52.086;5.418;2022-10-31T09:23:15;1.48;;;1.38;;
65936;SDS011;52707;52.086;5.418;2022-10-31T09:25:41;1.65;;;1.38;;
65936;SDS011;52707;52.086;5.418;2022-10-31T09:28:16;1.40;;;1.30;;
65936;SDS011;52707;52.086;5.418;2022-10-31T09:30:45;2.20;;;1.60;;
65936;SDS011;52707;52.086;5.418;2022-10-31T09:33:12;1.27;;;1.17;;
65936;SDS011;52707;52.086;5.418;2022-10-31T09:35:39;1.60;;;1.50;;
65936;SDS011;52707;52.086;5.418;2022-10-31T09:38:08;1.60;;;1.50;;
65936;SDS011;52707;52.086;5.418;2022-10-31T09:40:41;1.60;;;1.50;;
65936;SDS011;52707;52.086;5.418;2022-10-31T09:43:12;1.45;;;1.35;;
65936;SDS011;52707;52.086;5.418;2022-10-31T09:45:51;2.10;;;1.63;;
65936;SDS011;52707;52.086;5.418;2022-10-31T09:50:58;2.20;;;1.65;;
65936;SDS011;52707;52.086;5.418;2022-10-31T09:54:09;1.67;;;1.58;;
65936;SDS011;52707;52.086;5.418;2022-10-31T09:56:17;2.00;;;1.80;;
65936;SDS011;52707;52.086;5.418;2022-10-31T09:58:48;1.50;;;1.40;;
65936;SDS011;52707;52.086;5.418;2022-10-31T10:03:55;2.05;;;1.55;;
65936;SDS011;52707;52.086;5.418;2022-10-31T10:06:24;2.13;;;1.52;;
65936;SDS011;52707;52.086;5.418;2022-10-31T10:08:51;1.85;;;1.70;;
65936;SDS011;52707;52.086;5.418;2022-10-31T10:16:19;1.90;;;1.70;;
65936;SDS011;52707;52.086;5.418;2022-10-31T10:26:50;1.42;;;1.33;;
65936;SDS011;52707;52.086;5.418;2022-10-31T10:31:59;1.45;;;1.35;;
65936;SDS011;52707;52.086;5.418;2022-10-31T10:34:31;1.70;;;1.60;;
65936;SDS011;52707;52.086;5.418;2022-10-31T10:37:11;2.58;;;1.40;;
65936;SDS011;52707;52.086;5.418;2022-10-31T10:42:10;2.15;;;1.65;;
65936;SDS011;52707;52.086;5.418;2022-10-31T10:44:56;1.73;;;1.63;;
65936;SDS011;52707;52.086;5.418;2022-10-31T10:47:43;1.50;;;1.40;;
65936;SDS011;52707;52.086;5.418;2022-10-31T10:50:17;1.70;;;1.60;;
65936;SDS011;52707;52.086;5.418;2022-10-31T11:00:30;1.70;;;1.30;;
65936;SDS011;52707;52.086;5.418;2022-10-31T11:02:56;1.50;;;1.40;;
65936;SDS011;52707;52.086;5.418;2022-10-31T11:05:28;1.52;;;1.42;;
65936;SDS011;52707;52.086;5.418;2022-10-31T11:07:56;3.92;;;1.40;;
65936;SDS011;52707;52.086;5.418;2022-10-31T11:10:22;1.63;;;1.48;;
65936;SDS011;52707;52.086;5.418;2022-10-31T11:13:04;2.55;;;1.63;;
65936;SDS011;52707;52.086;5.418;2022-10-31T11:15:48;2.90;;;1.77;;
65936;SDS011;52707;52.086;5.418;2022-10-31T11:18:19;2.10;;;1.40;;
65936;SDS011;52707;52.086;5.418;2022-10-31T11:20:50;1.60;;;1.50;;
65936;SDS011;52707;52.086;5.418;2022-10-31T11:23:20;1.83;;;1.30;;
65936;SDS011;52707;52.086;5.418;2022-10-31T11:28:19;1.40;;;1.30;;
65936;SDS011;52707;52.086;5.418;2022-10-31T11:30:49;1.67;;;1.55;;
65936;SDS011;52707;52.086;5.418;2022-10-31T11:33:17;1.70;;;1.60;;
65936;SDS011;52707;52.086;5.418;2022-10-31T11:35:45;1.90;;;1.73;;
65936;SDS011;52707;52.086;5.418;2022-10-31T11:38:14;1.77;;;1.42;;
65936;SDS011;52707;52.086;5.418;2022-10-31T11:40:50;1.80;;;1.70;;
65936;SDS011;52707;52.086;5.418;2022-10-31T11:43:17;1.80;;;1.70;;
65936;SDS011;52707;52.086;5.418;2022-10-31T11:45:44;2.20;;;1.40;;
65936;SDS011;52707;52.086;5.418;2022-10-31T11:48:17;1.50;;;1.40;;
65936;SDS011;52707;52.086;5.418;2022-10-31T11:50:49;1.58;;;1.48;;
65936;SDS011;52707;52.086;5.418;2022-10-31T11:53:16;2.53;;;1.52;;
65936;SDS011;52707;52.086;5.418;2022-10-31T11:55:44;1.95;;;1.75;;
65936;SDS011;52707;52.086;5.418;2022-10-31T11:58:54;3.50;;;1.80;;
65936;SDS011;52707;52.086;5.418;2022-10-31T12:01:04;1.50;;;1.40;;
65936;SDS011;52707;52.086;5.418;2022-10-31T12:06:04;1.67;;;1.58;;
65936;SDS011;52707;52.086;5.418;2022-10-31T12:08:32;1.98;;;1.83;;
65936;SDS011;52707;52.086;5.418;2022-10-31T12:16:30;1.77;;;1.58;;
65936;SDS011;52707;52.086;5.418;2022-10-31T12:18:59;1.73;;;1.48;;
65936;SDS011;52707;52.086;5.418;2022-10-31T12:21:34;2.05;;;1.55;;
65936;SDS011;52707;52.086;5.418;2022-10-31T12:24:10;1.70;;;1.60;;
65936;SDS011;52707;52.086;5.418;2022-10-31T12:31:47;1.77;;;1.50;;
65936;SDS011;52707;52.086;5.418;2022-10-31T12:39:36;1.92;;;1.73;;
65936;SDS011;52707;52.086;5.418;2022-10-31T12:52:26;1.60;;;1.50;;
65936;SDS011;52707;52.086;5.418;2022-10-31T12:57:44;2.72;;;2.20;;
65936;SDS011;52707;52.086;5.418;2022-10-31T13:00:13;2.67;;;1.90;;
65936;SDS011;52707;52.086;5.418;2022-10-31T13:07:39;1.85;;;1.75;;
65936;SDS011;52707;52.086;5.418;2022-10-31T13:12:35;3.17;;;1.85;;
65936;SDS011;52707;52.086;5.418;2022-10-31T13:15:12;2.53;;;2.13;;
65936;SDS011;52707;52.086;5.418;2022-10-31T13:17:43;3.13;;;1.83;;
65936;SDS011;52707;52.086;5.418;2022-10-31T13:22:37;4.63;;;2.00;;
65936;SDS011;52707;52.086;5.418;2022-10-31T13:30:16;4.07;;;2.28;;
65936;SDS011;52707;52.086;5.418;2022-10-31T13:35:30;2.35;;;2.08;;
65936;SDS011;52707;52.086;5.418;2022-10-31T13:38:08;2.58;;;2.38;;
65936;SDS011;52707;52.086;5.418;2022-10-31T13:43:05;3.70;;;2.58;;
65936;SDS011;52707;52.086;5.418;2022-10-31T13:45:32;4.22;;;2.72;;
65936;SDS011;52707;52.086;5.418;2022-10-31T13:48:17;2.25;;;2.05;;
65936;SDS011;52707;52.086;5.418;2022-10-31T13:51:00;2.20;;;1.98;;
65936;SDS011;52707;52.086;5.418;2022-10-31T13:56:14;4.15;;;2.13;;
65936;SDS011;52707;52.086;5.418;2022-10-31T13:58:42;2.65;;;2.20;;
65936;SDS011;52707;52.086;5.418;2022-10-31T14:01:19;2.20;;;2.00;;
65936;SDS011;52707;52.086;5.418;2022-10-31T14:03:47;2.00;;;1.90;;
65936;SDS011;52707;52.086;5.418;2022-10-31T14:06:34;4.25;;;2.55;;
65936;SDS011;52707;52.086;5.418;2022-10-31T14:09:02;3.15;;;2.22;;
65936;SDS011;52707;52.086;5.418;2022-10-31T14:11:28;4.13;;;2.85;;
65936;SDS011;52707;52.086;5.418;2022-10-31T14:14:02;3.80;;;2.45;;
65936;SDS011;52707;52.086;5.418;2022-10-31T14:16:29;3.53;;;2.28;;
65936;SDS011;52707;52.086;5.418;2022-10-31T14:21:29;3.55;;;2.60;;
65936;SDS011;52707;52.086;5.418;2022-10-31T14:23:56;2.60;;;2.35;;
65936;SDS011;52707;52.086;5.418;2022-10-31T14:28:55;3.50;;;2.53;;
65936;SDS011;52707;52.086;5.418;2022-10-31T14:31:38;3.92;;;2.78;;
65936;SDS011;52707;52.086;5.418;2022-10-31T14:36:39;4.47;;;2.30;;
65936;SDS011;52707;52.086;5.418;2022-10-31T14:42:17;2.60;;;2.40;;
65936;SDS011;52707;52.086;5.418;2022-10-31T14:50:20;4.50;;;2.95;;
65936;SDS011;52707;52.086;5.418;2022-10-31T14:52:50;2.75;;;2.50;;
65936;SDS011;52707;52.086;5.418;2022-10-31T14:55:18;3.55;;;2.80;;
65936;SDS011;52707;52.086;5.418;2022-10-31T14:57:52;5.05;;;2.97;;
65936;SDS011;52707;52.086;5.418;2022-10-31T15:00:20;4.90;;;3.10;;
65936;SDS011;52707;52.086;5.418;2022-10-31T15:05:16;5.28;;;3.22;;
65936;SDS011;52707;52.086;5.418;2022-10-31T15:08:26;2.90;;;2.60;;
65936;SDS011;52707;52.086;5.418;2022-10-31T15:10:36;5.40;;;3.17;;
65936;SDS011;52707;52.086;5.418;2022-10-31T15:13:09;5.45;;;3.08;;
65936;SDS011;52707;52.086;5.418;2022-10-31T15:15:36;4.13;;;2.38;;
65936;SDS011;52707;52.086;5.418;2022-10-31T15:18:03;4.68;;;2.88;;
65936;SDS011;52707;52.086;5.418;2022-10-31T15:20:32;3.53;;;2.83;;
65936;SDS011;52707;52.086;5.418;2022-10-31T15:23:01;2.70;;;2.50;;
65936;SDS011;52707;52.086;5.418;2022-10-31T15:25:28;4.95;;;2.85;;
65936;SDS011;52707;52.086;5.418;2022-10-31T15:27:56;6.15;;;3.13;;
65936;SDS011;52707;52.086;5.418;2022-10-31T15:30:23;4.15;;;2.83;;
65936;SDS011;52707;52.086;5.418;2022-10-31T15:32:50;4.15;;;2.97;;
65936;SDS011;52707;52.086;5.418;2022-10-31T15:35:25;3.92;;;2.80;;
65936;SDS011;52707;52.086;5.418;2022-10-31T15:37:52;3.22;;;2.90;;
65936;SDS011;52707;52.086;5.418;2022-10-31T15:40:19;3.90;;;2.75;;
65936;SDS011;52707;52.086;5.418;2022-10-31T15:42:56;4.43;;;3.10;;
65936;SDS011;52707;52.086;5.418;2022-10-31T15:45:24;3.53;;;2.75;;
65936;SDS011;52707;52.086;5.418;2022-10-31T15:47:57;4.10;;;2.80;;
65936;SDS011;52707;52.086;5.418;2022-10-31T15:50:58;3.38;;;2.83;;
65936;SDS011;52707;52.086;5.418;2022-10-31T15:53:19;4.75;;;3.25;;
65936;SDS011;52707;52.086;5.418;2022-10-31T15:55:50;4.28;;;3.10;;
65936;SDS011;52707;52.086;5.418;2022-10-31T15:58:17;4.78;;;2.80;;
65936;SDS011;52707;52.086;5.418;2022-10-31T16:00:43;3.53;;;2.72;;
65936;SDS011;52707;52.086;5.418;2022-10-31T16:08:21;4.28;;;2.97;;
65936;SDS011;52707;52.086;5.418;2022-10-31T16:10:49;3.58;;;2.65;;
65936;SDS011;52707;52.086;5.418;2022-10-31T16:13:15;3.50;;;3.10;;
65936;SDS011;52707;52.086;5.418;2022-10-31T16:15:52;4.10;;;3.00;;
65936;SDS011;52707;52.086;5.418;2022-10-31T16:18:40;5.13;;;3.13;;
65936;SDS011;52707;52.086;5.418;2022-10-31T16:21:07;5.03;;;3.10;;
65936;SDS011;52707;52.086;5.418;2022-10-31T16:23:34;5.80;;;3.03;;
65936;SDS011;52707;52.086;5.418;2022-10-31T16:26:04;3.00;;;2.70;;
65936;SDS011;52707;52.086;5.418;2022-10-31T16:28:31;3.20;;;2.85;;
65936;SDS011;52707;52.086;5.418;2022-10-31T16:31:12;3.85;;;2.80;;
65936;SDS011;52707;52.086;5.418;2022-10-31T16:33:39;6.20;;;2.97;;
65936;SDS011;52707;52.086;5.418;2022-10-31T16:39:00;4.15;;;2.70;;
65936;SDS011;52707;52.086;5.418;2022-10-31T16:41:26;4.18;;;3.47;;
65936;SDS011;52707;52.086;5.418;2022-10-31T16:43:52;5.53;;;3.25;;
65936;SDS011;52707;52.086;5.418;2022-10-31T16:46:23;4.95;;;3.05;;
65936;SDS011;52707;52.086;5.418;2022-10-31T16:48:50;5.15;;;3.05;;
65936;SDS011;52707;52.086;5.418;2022-10-31T16:51:16;5.30;;;3.15;;
65936;SDS011;52707;52.086;5.418;2022-10-31T16:53:43;4.20;;;3.35;;
65936;SDS011;52707;52.086;5.418;2022-10-31T16:56:15;6.00;;;3.70;;
65936;SDS011;52707;52.086;5.418;2022-10-31T16:58:42;3.92;;;3.22;;
65936;SDS011;52707;52.086;5.418;2022-10-31T17:01:09;3.72;;;3.35;;
65936;SDS011;52707;52.086;5.418;2022-10-31T17:03:36;3.45;;;3.08;;
65936;SDS011;52707;52.086;5.418;2022-10-31T17:06:03;4.22;;;3.40;;
65936;SDS011;52707;52.086;5.418;2022-10-31T17:08:29;3.55;;;2.90;;
65936;SDS011;52707;52.086;5.418;2022-10-31T17:10:56;4.40;;;3.47;;